sensor_id;sensor_type;location;lat;lon;timestamp;pressure;altitude;pressure_sealevel;temperature
73937;BMP180;59249;59.736;30.568;2023-09-18T00:01:10;101526.00;;;8.60
73937;BMP180;59249;59.736;30.568;2023-09-18T00:03:39;101534.00;;;8.60
73937;BMP180;59249;59.736;30.568;2023-09-18T00:06:09;101533.00;;;8.50
73937;BMP180;59249;59.736;30.568;2023-09-18T00:08:39;101538.00;;;8.40
73937;BMP180;59249;59.736;30.568;2023-09-18T00:11:08;101531.00;;;8.30
73937;BMP180;59249;59.736;30.568;2023-09-18T00:13:37;101547.00;;;8.30
73937;BMP180;59249;59.736;30.568;2023-09-18T00:16:07;101541.00;;;8.30
73937;BMP180;59249;59.736;30.568;2023-09-18T00:18:36;101545.00;;;8.30
73937;BMP180;59249;59.736;30.568;2023-09-18T00:21:05;101545.00;;;8.40
73937;BMP180;59249;59.736;30.568;2023-09-18T00:23:34;101553.00;;;8.40
73937;BMP180;59249;59.736;30.568;2023-09-18T00:26:03;101550.00;;;8.40
73937;BMP180;59249;59.736;30.568;2023-09-18T00:28:32;101550.00;;;8.40
73937;BMP180;59249;59.736;30.568;2023-09-18T00:31:01;101565.00;;;8.50
73937;BMP180;59249;59.736;30.568;2023-09-18T00:33:32;101567.00;;;8.50
73937;BMP180;59249;59.736;30.568;2023-09-18T00:36:00;101577.00;;;8.60
73937;BMP180;59249;59.736;30.568;2023-09-18T00:38:30;101576.00;;;8.50
73937;BMP180;59249;59.736;30.568;2023-09-18T00:41:00;101572.00;;;8.50
73937;BMP180;59249;59.736;30.568;2023-09-18T00:43:29;101577.00;;;8.50
73937;BMP180;59249;59.736;30.568;2023-09-18T00:45:59;101569.00;;;8.40
73937;BMP180;59249;59.736;30.568;2023-09-18T00:48:28;101573.00;;;8.30
73937;BMP180;59249;59.736;30.568;2023-09-18T00:50:59;101578.00;;;8.30
73937;BMP180;59249;59.736;30.568;2023-09-18T00:53:28;101569.00;;;8.30
73937;BMP180;59249;59.736;30.568;2023-09-18T00:56:00;101583.00;;;8.40
73937;BMP180;59249;59.736;30.568;2023-09-18T00:58:29;101574.00;;;8.40
73937;BMP180;59249;59.736;30.568;2023-09-18T01:00:58;101585.00;;;8.50
73937;BMP180;59249;59.736;30.568;2023-09-18T01:03:28;101580.00;;;8.50
73937;BMP180;59249;59.736;30.568;2023-09-18T01:06:02;101583.00;;;8.60
73937;BMP180;59249;59.736;30.568;2023-09-18T01:08:31;101577.00;;;8.60
73937;BMP180;59249;59.736;30.568;2023-09-18T01:11:06;101573.00;;;8.60
73937;BMP180;59249;59.736;30.568;2023-09-18T01:13:45;101582.00;;;8.70
73937;BMP180;59249;59.736;30.568;2023-09-18T01:16:24;101586.00;;;8.80
73937;BMP180;59249;59.736;30.568;2023-09-18T01:18:58;101587.00;;;8.80
73937;BMP180;59249;59.736;30.568;2023-09-18T01:21:28;101582.00;;;8.80
73937;BMP180;59249;59.736;30.568;2023-09-18T01:23:58;101593.00;;;8.80
73937;BMP180;59249;59.736;30.568;2023-09-18T01:26:27;101592.00;;;8.90
73937;BMP180;59249;59.736;30.568;2023-09-18T01:28:56;101587.00;;;8.80
73937;BMP180;59249;59.736;30.568;2023-09-18T01:31:25;101587.00;;;8.80
73937;BMP180;59249;59.736;30.568;2023-09-18T01:33:54;101597.00;;;8.90
73937;BMP180;59249;59.736;30.568;2023-09-18T01:36:24;101592.00;;;8.90
73937;BMP180;59249;59.736;30.568;2023-09-18T01:38:55;101600.00;;;8.90
73937;BMP180;59249;59.736;30.568;2023-09-18T01:41:25;101590.00;;;8.90
73937;BMP180;59249;59.736;30.568;2023-09-18T01:43:54;101586.00;;;8.80
73937;BMP180;59249;59.736;30.568;2023-09-18T01:46:23;101597.00;;;8.90
73937;BMP180;59249;59.736;30.568;2023-09-18T01:48:54;101604.00;;;8.90
73937;BMP180;59249;59.736;30.568;2023-09-18T01:51:23;101592.00;;;8.90
73937;BMP180;59249;59.736;30.568;2023-09-18T01:53:52;101600.00;;;8.90
73937;BMP180;59249;59.736;30.568;2023-09-18T01:56:25;101597.00;;;8.90
73937;BMP180;59249;59.736;30.568;2023-09-18T01:58:53;101597.00;;;9.00
73937;BMP180;59249;59.736;30.568;2023-09-18T02:01:23;101604.00;;;8.90
73937;BMP180;59249;59.736;30.568;2023-09-18T02:03:52;101596.00;;;9.00
73937;BMP180;59249;59.736;30.568;2023-09-18T02:06:41;101599.00;;;9.00
73937;BMP180;59249;59.736;30.568;2023-09-18T02:09:10;101612.00;;;9.00
73937;BMP180;59249;59.736;30.568;2023-09-18T02:11:42;101609.00;;;9.00
73937;BMP180;59249;59.736;30.568;2023-09-18T02:14:11;101609.00;;;9.10
73937;BMP180;59249;59.736;30.568;2023-09-18T02:16:43;101614.00;;;9.10
73937;BMP180;59249;59.736;30.568;2023-09-18T02:19:13;101618.00;;;9.10
73937;BMP180;59249;59.736;30.568;2023-09-18T02:21:44;101624.00;;;9.10
73937;BMP180;59249;59.736;30.568;2023-09-18T02:24:13;101620.00;;;9.20
73937;BMP180;59249;59.736;30.568;2023-09-18T02:26:43;101621.00;;;9.10
73937;BMP180;59249;59.736;30.568;2023-09-18T02:29:14;101626.00;;;9.20
73937;BMP180;59249;59.736;30.568;2023-09-18T02:31:43;101632.00;;;9.10
73937;BMP180;59249;59.736;30.568;2023-09-18T02:34:14;101644.00;;;9.20
73937;BMP180;59249;59.736;30.568;2023-09-18T02:36:42;101641.00;;;9.00
73937;BMP180;59249;59.736;30.568;2023-09-18T02:39:11;101640.00;;;8.90
73937;BMP180;59249;59.736;30.568;2023-09-18T02:41:40;101635.00;;;8.90
73937;BMP180;59249;59.736;30.568;2023-09-18T02:44:10;101633.00;;;8.80
73937;BMP180;59249;59.736;30.568;2023-09-18T02:46:41;101637.00;;;8.80
73937;BMP180;59249;59.736;30.568;2023-09-18T02:49:12;101637.00;;;8.70
73937;BMP180;59249;59.736;30.568;2023-09-18T02:51:41;101640.00;;;8.80
73937;BMP180;59249;59.736;30.568;2023-09-18T02:54:10;101642.00;;;8.80
73937;BMP180;59249;59.736;30.568;2023-09-18T02:56:38;101646.00;;;8.80
73937;BMP180;59249;59.736;30.568;2023-09-18T02:59:07;101630.00;;;8.80
73937;BMP180;59249;59.736;30.568;2023-09-18T03:01:38;101634.00;;;8.80
73937;BMP180;59249;59.736;30.568;2023-09-18T03:04:07;101632.00;;;8.90
73937;BMP180;59249;59.736;30.568;2023-09-18T03:06:38;101641.00;;;8.90
73937;BMP180;59249;59.736;30.568;2023-09-18T03:09:09;101648.00;;;8.90
73937;BMP180;59249;59.736;30.568;2023-09-18T03:11:38;101651.00;;;8.90
73937;BMP180;59249;59.736;30.568;2023-09-18T03:14:07;101644.00;;;8.90
73937;BMP180;59249;59.736;30.568;2023-09-18T03:16:37;101645.00;;;8.80
73937;BMP180;59249;59.736;30.568;2023-09-18T03:19:06;101648.00;;;8.80
73937;BMP180;59249;59.736;30.568;2023-09-18T03:21:35;101650.00;;;8.70
73937;BMP180;59249;59.736;30.568;2023-09-18T03:24:05;101655.00;;;8.70
73937;BMP180;59249;59.736;30.568;2023-09-18T03:26:35;101647.00;;;8.60
73937;BMP180;59249;59.736;30.568;2023-09-18T03:29:04;101657.00;;;8.60
73937;BMP180;59249;59.736;30.568;2023-09-18T03:31:33;101644.00;;;8.50
73937;BMP180;59249;59.736;30.568;2023-09-18T03:34:03;101645.00;;;8.50
73937;BMP180;59249;59.736;30.568;2023-09-18T03:36:32;101649.00;;;8.50
73937;BMP180;59249;59.736;30.568;2023-09-18T03:39:02;101637.00;;;8.40
73937;BMP180;59249;59.736;30.568;2023-09-18T03:41:32;101640.00;;;8.40
73937;BMP180;59249;59.736;30.568;2023-09-18T03:44:02;101638.00;;;8.40
73937;BMP180;59249;59.736;30.568;2023-09-18T03:46:32;101639.00;;;8.40
73937;BMP180;59249;59.736;30.568;2023-09-18T03:49:02;101645.00;;;8.40
73937;BMP180;59249;59.736;30.568;2023-09-18T03:51:35;101638.00;;;8.40
73937;BMP180;59249;59.736;30.568;2023-09-18T03:54:05;101644.00;;;8.40
73937;BMP180;59249;59.736;30.568;2023-09-18T03:56:34;101651.00;;;8.40
73937;BMP180;59249;59.736;30.568;2023-09-18T03:59:04;101658.00;;;8.50
73937;BMP180;59249;59.736;30.568;2023-09-18T04:01:33;101661.00;;;8.50
73937;BMP180;59249;59.736;30.568;2023-09-18T04:04:04;101665.00;;;8.50
73937;BMP180;59249;59.736;30.568;2023-09-18T04:06:37;101671.00;;;8.60
73937;BMP180;59249;59.736;30.568;2023-09-18T04:09:12;101664.00;;;8.60
73937;BMP180;59249;59.736;30.568;2023-09-18T04:11:42;101674.00;;;8.70
73937;BMP180;59249;59.736;30.568;2023-09-18T04:14:11;101668.00;;;8.70
73937;BMP180;59249;59.736;30.568;2023-09-18T04:16:40;101667.00;;;8.70
73937;BMP180;59249;59.736;30.568;2023-09-18T04:19:13;101667.00;;;8.70
73937;BMP180;59249;59.736;30.568;2023-09-18T04:21:43;101670.00;;;8.80
73937;BMP180;59249;59.736;30.568;2023-09-18T04:24:13;101666.00;;;8.80
73937;BMP180;59249;59.736;30.568;2023-09-18T04:26:42;101666.00;;;8.80
73937;BMP180;59249;59.736;30.568;2023-09-18T04:29:13;101667.00;;;8.70
73937;BMP180;59249;59.736;30.568;2023-09-18T04:31:42;101664.00;;;8.80
73937;BMP180;59249;59.736;30.568;2023-09-18T04:34:14;101661.00;;;8.80
73937;BMP180;59249;59.736;30.568;2023-09-18T04:36:46;101663.00;;;8.70
73937;BMP180;59249;59.736;30.568;2023-09-18T04:39:16;101668.00;;;8.80
73937;BMP180;59249;59.736;30.568;2023-09-18T04:41:46;101673.00;;;8.90
73937;BMP180;59249;59.736;30.568;2023-09-18T04:44:15;101666.00;;;8.90
73937;BMP180;59249;59.736;30.568;2023-09-18T04:46:44;101659.00;;;9.00
73937;BMP180;59249;59.736;30.568;2023-09-18T04:49:15;101660.00;;;9.10
73937;BMP180;59249;59.736;30.568;2023-09-18T04:51:44;101664.00;;;9.10
73937;BMP180;59249;59.736;30.568;2023-09-18T04:54:13;101670.00;;;9.20
73937;BMP180;59249;59.736;30.568;2023-09-18T04:56:43;101670.00;;;9.20
73937;BMP180;59249;59.736;30.568;2023-09-18T04:59:12;101669.00;;;9.30
73937;BMP180;59249;59.736;30.568;2023-09-18T05:01:42;101674.00;;;9.40
73937;BMP180;59249;59.736;30.568;2023-09-18T05:04:18;101674.00;;;9.40
73937;BMP180;59249;59.736;30.568;2023-09-18T05:06:50;101679.00;;;9.40
73937;BMP180;59249;59.736;30.568;2023-09-18T05:09:19;101680.00;;;9.50
73937;BMP180;59249;59.736;30.568;2023-09-18T05:11:48;101680.00;;;9.60
73937;BMP180;59249;59.736;30.568;2023-09-18T05:14:17;101682.00;;;9.60
73937;BMP180;59249;59.736;30.568;2023-09-18T05:16:47;101689.00;;;9.70
73937;BMP180;59249;59.736;30.568;2023-09-18T05:19:18;101691.00;;;9.80
73937;BMP180;59249;59.736;30.568;2023-09-18T05:21:46;101685.00;;;9.80
73937;BMP180;59249;59.736;30.568;2023-09-18T05:24:15;101691.00;;;9.90
73937;BMP180;59249;59.736;30.568;2023-09-18T05:26:45;101682.00;;;10.00
73937;BMP180;59249;59.736;30.568;2023-09-18T05:29:14;101686.00;;;10.00
73937;BMP180;59249;59.736;30.568;2023-09-18T05:31:43;101693.00;;;10.10
73937;BMP180;59249;59.736;30.568;2023-09-18T05:34:13;101694.00;;;10.10
73937;BMP180;59249;59.736;30.568;2023-09-18T05:36:43;101692.00;;;10.20
73937;BMP180;59249;59.736;30.568;2023-09-18T05:39:12;101693.00;;;10.30
73937;BMP180;59249;59.736;30.568;2023-09-18T05:41:41;101697.00;;;10.30
73937;BMP180;59249;59.736;30.568;2023-09-18T05:44:10;101694.00;;;10.40
73937;BMP180;59249;59.736;30.568;2023-09-18T05:46:39;101696.00;;;10.50
73937;BMP180;59249;59.736;30.568;2023-09-18T05:49:08;101716.00;;;10.60
73937;BMP180;59249;59.736;30.568;2023-09-18T05:51:37;101718.00;;;10.70
73937;BMP180;59249;59.736;30.568;2023-09-18T05:54:07;101709.00;;;10.70
73937;BMP180;59249;59.736;30.568;2023-09-18T05:56:36;101707.00;;;10.70
73937;BMP180;59249;59.736;30.568;2023-09-18T05:59:05;101713.00;;;10.80
73937;BMP180;59249;59.736;30.568;2023-09-18T06:01:34;101719.00;;;10.90
73937;BMP180;59249;59.736;30.568;2023-09-18T06:04:05;101719.00;;;10.90
73937;BMP180;59249;59.736;30.568;2023-09-18T06:06:37;101728.00;;;11.00
73937;BMP180;59249;59.736;30.568;2023-09-18T06:09:07;101724.00;;;11.00
73937;BMP180;59249;59.736;30.568;2023-09-18T06:11:38;101719.00;;;11.10
73937;BMP180;59249;59.736;30.568;2023-09-18T06:14:07;101732.00;;;11.20
73937;BMP180;59249;59.736;30.568;2023-09-18T06:16:35;101721.00;;;11.30
73937;BMP180;59249;59.736;30.568;2023-09-18T06:19:07;101731.00;;;11.30
73937;BMP180;59249;59.736;30.568;2023-09-18T06:21:35;101725.00;;;11.40
73937;BMP180;59249;59.736;30.568;2023-09-18T06:24:05;101728.00;;;11.40
73937;BMP180;59249;59.736;30.568;2023-09-18T06:26:36;101721.00;;;11.40
73937;BMP180;59249;59.736;30.568;2023-09-18T06:29:05;101726.00;;;11.40
73937;BMP180;59249;59.736;30.568;2023-09-18T06:31:36;101725.00;;;11.50
73937;BMP180;59249;59.736;30.568;2023-09-18T06:34:05;101733.00;;;11.50
73937;BMP180;59249;59.736;30.568;2023-09-18T06:36:36;101742.00;;;11.60
73937;BMP180;59249;59.736;30.568;2023-09-18T06:39:06;101745.00;;;11.60
73937;BMP180;59249;59.736;30.568;2023-09-18T06:41:38;101743.00;;;11.80
73937;BMP180;59249;59.736;30.568;2023-09-18T06:44:07;101745.00;;;11.90
73937;BMP180;59249;59.736;30.568;2023-09-18T06:46:36;101758.00;;;11.90
73937;BMP180;59249;59.736;30.568;2023-09-18T06:49:09;101750.00;;;12.00
73937;BMP180;59249;59.736;30.568;2023-09-18T06:51:38;101739.00;;;12.00
73937;BMP180;59249;59.736;30.568;2023-09-18T06:54:10;101747.00;;;12.10
73937;BMP180;59249;59.736;30.568;2023-09-18T06:56:40;101744.00;;;12.00
73937;BMP180;59249;59.736;30.568;2023-09-18T06:59:11;101755.00;;;12.10
73937;BMP180;59249;59.736;30.568;2023-09-18T07:01:41;101739.00;;;12.10
73937;BMP180;59249;59.736;30.568;2023-09-18T07:04:10;101744.00;;;12.10
73937;BMP180;59249;59.736;30.568;2023-09-18T07:06:41;101752.00;;;12.20
73937;BMP180;59249;59.736;30.568;2023-09-18T07:09:11;101761.00;;;12.20
73937;BMP180;59249;59.736;30.568;2023-09-18T07:11:47;101762.00;;;12.30
73937;BMP180;59249;59.736;30.568;2023-09-18T07:14:16;101757.00;;;12.30
73937;BMP180;59249;59.736;30.568;2023-09-18T07:16:45;101745.00;;;12.30
73937;BMP180;59249;59.736;30.568;2023-09-18T07:19:16;101746.00;;;12.40
73937;BMP180;59249;59.736;30.568;2023-09-18T07:21:46;101743.00;;;12.50
73937;BMP180;59249;59.736;30.568;2023-09-18T07:24:18;101756.00;;;12.50
73937;BMP180;59249;59.736;30.568;2023-09-18T07:26:52;101756.00;;;12.60
73937;BMP180;59249;59.736;30.568;2023-09-18T07:29:22;101771.00;;;12.60
73937;BMP180;59249;59.736;30.568;2023-09-18T07:31:52;101761.00;;;12.60
73937;BMP180;59249;59.736;30.568;2023-09-18T07:34:21;101760.00;;;12.70
73937;BMP180;59249;59.736;30.568;2023-09-18T07:36:50;101763.00;;;12.70
73937;BMP180;59249;59.736;30.568;2023-09-18T07:39:22;101759.00;;;12.80
73937;BMP180;59249;59.736;30.568;2023-09-18T07:41:56;101757.00;;;12.90
73937;BMP180;59249;59.736;30.568;2023-09-18T07:44:26;101761.00;;;13.10
73937;BMP180;59249;59.736;30.568;2023-09-18T07:46:56;101770.00;;;13.30
73937;BMP180;59249;59.736;30.568;2023-09-18T07:49:25;101756.00;;;13.40
73937;BMP180;59249;59.736;30.568;2023-09-18T07:51:57;101769.00;;;13.60
73937;BMP180;59249;59.736;30.568;2023-09-18T07:54:27;101775.00;;;13.80
73937;BMP180;59249;59.736;30.568;2023-09-18T07:57:18;101780.00;;;13.70
73937;BMP180;59249;59.736;30.568;2023-09-18T07:59:51;101770.00;;;13.70
73937;BMP180;59249;59.736;30.568;2023-09-18T08:02:22;101777.00;;;13.80
73937;BMP180;59249;59.736;30.568;2023-09-18T08:04:52;101776.00;;;13.80
73937;BMP180;59249;59.736;30.568;2023-09-18T08:07:29;101772.00;;;14.00
73937;BMP180;59249;59.736;30.568;2023-09-18T08:10:03;101780.00;;;14.10
73937;BMP180;59249;59.736;30.568;2023-09-18T08:12:38;101770.00;;;14.20
73937;BMP180;59249;59.736;30.568;2023-09-18T08:15:12;101776.00;;;14.30
73937;BMP180;59249;59.736;30.568;2023-09-18T08:17:45;101773.00;;;14.20
73937;BMP180;59249;59.736;30.568;2023-09-18T08:20:19;101773.00;;;14.40
73937;BMP180;59249;59.736;30.568;2023-09-18T08:22:50;101765.00;;;14.30
73937;BMP180;59249;59.736;30.568;2023-09-18T08:25:22;101777.00;;;14.50
73937;BMP180;59249;59.736;30.568;2023-09-18T08:27:52;101770.00;;;14.50
73937;BMP180;59249;59.736;30.568;2023-09-18T08:30:23;101767.00;;;14.40
73937;BMP180;59249;59.736;30.568;2023-09-18T08:33:02;101772.00;;;14.50
73937;BMP180;59249;59.736;30.568;2023-09-18T08:35:32;101773.00;;;14.60
73937;BMP180;59249;59.736;30.568;2023-09-18T08:38:04;101782.00;;;14.60
73937;BMP180;59249;59.736;30.568;2023-09-18T08:40:36;101776.00;;;14.70
73937;BMP180;59249;59.736;30.568;2023-09-18T08:43:14;101780.00;;;14.70
73937;BMP180;59249;59.736;30.568;2023-09-18T08:45:52;101773.00;;;14.80
73937;BMP180;59249;59.736;30.568;2023-09-18T08:48:23;101781.00;;;14.90
73937;BMP180;59249;59.736;30.568;2023-09-18T08:50:57;101781.00;;;14.80
73937;BMP180;59249;59.736;30.568;2023-09-18T08:53:33;101785.00;;;14.90
73937;BMP180;59249;59.736;30.568;2023-09-18T08:56:05;101793.00;;;15.00
73937;BMP180;59249;59.736;30.568;2023-09-18T08:58:40;101800.00;;;15.00
73937;BMP180;59249;59.736;30.568;2023-09-18T09:01:17;101794.00;;;15.20
73937;BMP180;59249;59.736;30.568;2023-09-18T09:03:47;101778.00;;;15.30
73937;BMP180;59249;59.736;30.568;2023-09-18T09:06:18;101780.00;;;15.30
73937;BMP180;59249;59.736;30.568;2023-09-18T09:08:51;101785.00;;;15.30
73937;BMP180;59249;59.736;30.568;2023-09-18T09:11:21;101787.00;;;15.30
73937;BMP180;59249;59.736;30.568;2023-09-18T09:14:08;101793.00;;;15.20
73937;BMP180;59249;59.736;30.568;2023-09-18T09:16:49;101785.00;;;15.30
73937;BMP180;59249;59.736;30.568;2023-09-18T09:19:28;101788.00;;;15.30
73937;BMP180;59249;59.736;30.568;2023-09-18T09:21:58;101794.00;;;15.30
73937;BMP180;59249;59.736;30.568;2023-09-18T09:24:39;101795.00;;;15.40
73937;BMP180;59249;59.736;30.568;2023-09-18T09:27:13;101810.00;;;15.40
73937;BMP180;59249;59.736;30.568;2023-09-18T09:29:57;101798.00;;;15.40
73937;BMP180;59249;59.736;30.568;2023-09-18T09:32:32;101801.00;;;15.30
73937;BMP180;59249;59.736;30.568;2023-09-18T09:35:02;101802.00;;;15.40
73937;BMP180;59249;59.736;30.568;2023-09-18T09:37:34;101806.00;;;15.50
73937;BMP180;59249;59.736;30.568;2023-09-18T09:40:04;101808.00;;;15.50
73937;BMP180;59249;59.736;30.568;2023-09-18T09:42:38;101801.00;;;15.50
73937;BMP180;59249;59.736;30.568;2023-09-18T09:45:14;101804.00;;;15.50
73937;BMP180;59249;59.736;30.568;2023-09-18T09:47:44;101803.00;;;15.50
73937;BMP180;59249;59.736;30.568;2023-09-18T09:50:14;101809.00;;;15.50
73937;BMP180;59249;59.736;30.568;2023-09-18T09:52:47;101806.00;;;15.40
73937;BMP180;59249;59.736;30.568;2023-09-18T09:55:19;101804.00;;;15.40
73937;BMP180;59249;59.736;30.568;2023-09-18T09:57:53;101796.00;;;15.30
73937;BMP180;59249;59.736;30.568;2023-09-18T10:00:30;101807.00;;;15.40
73937;BMP180;59249;59.736;30.568;2023-09-18T10:03:08;101807.00;;;15.50
73937;BMP180;59249;59.736;30.568;2023-09-18T10:05:40;101810.00;;;15.60
73937;BMP180;59249;59.736;30.568;2023-09-18T10:08:16;101817.00;;;15.50
73937;BMP180;59249;59.736;30.568;2023-09-18T10:10:50;101815.00;;;15.60
73937;BMP180;59249;59.736;30.568;2023-09-18T10:13:23;101816.00;;;15.60
73937;BMP180;59249;59.736;30.568;2023-09-18T10:16:00;101812.00;;;15.70
73937;BMP180;59249;59.736;30.568;2023-09-18T10:18:44;101811.00;;;15.70
73937;BMP180;59249;59.736;30.568;2023-09-18T10:21:26;101801.00;;;15.60
73937;BMP180;59249;59.736;30.568;2023-09-18T10:24:08;101805.00;;;15.60
73937;BMP180;59249;59.736;30.568;2023-09-18T10:26:48;101805.00;;;15.80
73937;BMP180;59249;59.736;30.568;2023-09-18T10:29:28;101802.00;;;15.70
73937;BMP180;59249;59.736;30.568;2023-09-18T10:32:03;101803.00;;;15.80
73937;BMP180;59249;59.736;30.568;2023-09-18T10:34:35;101809.00;;;15.70
73937;BMP180;59249;59.736;30.568;2023-09-18T10:37:04;101802.00;;;15.80
73937;BMP180;59249;59.736;30.568;2023-09-18T10:39:39;101818.00;;;15.90
73937;BMP180;59249;59.736;30.568;2023-09-18T10:42:17;101820.00;;;15.80
73937;BMP180;59249;59.736;30.568;2023-09-18T10:44:50;101816.00;;;15.70
73937;BMP180;59249;59.736;30.568;2023-09-18T10:47:29;101810.00;;;15.80
73937;BMP180;59249;59.736;30.568;2023-09-18T10:49:59;101810.00;;;15.70
73937;BMP180;59249;59.736;30.568;2023-09-18T10:52:30;101818.00;;;15.80
73937;BMP180;59249;59.736;30.568;2023-09-18T10:55:21;101820.00;;;15.80
73937;BMP180;59249;59.736;30.568;2023-09-18T10:57:53;101823.00;;;15.90
73937;BMP180;59249;59.736;30.568;2023-09-18T11:00:25;101819.00;;;15.90
73937;BMP180;59249;59.736;30.568;2023-09-18T11:03:17;101821.00;;;15.80
73937;BMP180;59249;59.736;30.568;2023-09-18T11:06:07;101828.00;;;16.00
73937;BMP180;59249;59.736;30.568;2023-09-18T11:08:43;101835.00;;;15.80
73937;BMP180;59249;59.736;30.568;2023-09-18T11:11:17;101830.00;;;15.90
73937;BMP180;59249;59.736;30.568;2023-09-18T11:13:52;101827.00;;;15.90
73937;BMP180;59249;59.736;30.568;2023-09-18T11:16:39;101832.00;;;15.90
73937;BMP180;59249;59.736;30.568;2023-09-18T11:19:16;101823.00;;;15.90
73937;BMP180;59249;59.736;30.568;2023-09-18T11:22:08;101830.00;;;16.00
73937;BMP180;59249;59.736;30.568;2023-09-18T11:24:43;101834.00;;;16.00
73937;BMP180;59249;59.736;30.568;2023-09-18T11:27:24;101836.00;;;16.10
73937;BMP180;59249;59.736;30.568;2023-09-18T11:29:55;101824.00;;;16.10
73937;BMP180;59249;59.736;30.568;2023-09-18T11:32:38;101830.00;;;16.00
73937;BMP180;59249;59.736;30.568;2023-09-18T11:35:18;101833.00;;;16.20
73937;BMP180;59249;59.736;30.568;2023-09-18T11:38:23;101838.00;;;16.20
73937;BMP180;59249;59.736;30.568;2023-09-18T11:40:57;101836.00;;;16.20
73937;BMP180;59249;59.736;30.568;2023-09-18T11:43:34;101826.00;;;16.20
73937;BMP180;59249;59.736;30.568;2023-09-18T11:46:20;101825.00;;;16.20
73937;BMP180;59249;59.736;30.568;2023-09-18T11:48:53;101827.00;;;16.20
73937;BMP180;59249;59.736;30.568;2023-09-18T11:51:28;101825.00;;;16.20
73937;BMP180;59249;59.736;30.568;2023-09-18T11:53:57;101822.00;;;16.30
73937;BMP180;59249;59.736;30.568;2023-09-18T11:56:36;101822.00;;;16.30
73937;BMP180;59249;59.736;30.568;2023-09-18T11:59:12;101820.00;;;16.40
73937;BMP180;59249;59.736;30.568;2023-09-18T12:01:42;101810.00;;;16.40
73937;BMP180;59249;59.736;30.568;2023-09-18T12:04:30;101821.00;;;16.50
73937;BMP180;59249;59.736;30.568;2023-09-18T12:07:03;101818.00;;;16.40
73937;BMP180;59249;59.736;30.568;2023-09-18T12:09:42;101820.00;;;16.30
73937;BMP180;59249;59.736;30.568;2023-09-18T12:12:16;101819.00;;;16.30
73937;BMP180;59249;59.736;30.568;2023-09-18T12:14:49;101818.00;;;16.30
73937;BMP180;59249;59.736;30.568;2023-09-18T12:17:25;101819.00;;;16.30
73937;BMP180;59249;59.736;30.568;2023-09-18T12:19:57;101817.00;;;16.30
73937;BMP180;59249;59.736;30.568;2023-09-18T12:22:35;101812.00;;;16.30
73937;BMP180;59249;59.736;30.568;2023-09-18T12:25:18;101809.00;;;16.30
73937;BMP180;59249;59.736;30.568;2023-09-18T12:27:51;101808.00;;;16.20
73937;BMP180;59249;59.736;30.568;2023-09-18T12:30:27;101806.00;;;16.10
73937;BMP180;59249;59.736;30.568;2023-09-18T12:32:59;101808.00;;;16.10
73937;BMP180;59249;59.736;30.568;2023-09-18T12:35:40;101803.00;;;16.00
73937;BMP180;59249;59.736;30.568;2023-09-18T12:38:17;101800.00;;;15.90
73937;BMP180;59249;59.736;30.568;2023-09-18T12:40:55;101798.00;;;15.90
73937;BMP180;59249;59.736;30.568;2023-09-18T12:44:06;101802.00;;;16.00
73937;BMP180;59249;59.736;30.568;2023-09-18T12:46:39;101805.00;;;16.00
73937;BMP180;59249;59.736;30.568;2023-09-18T12:49:20;101800.00;;;15.80
73937;BMP180;59249;59.736;30.568;2023-09-18T12:52:00;101794.00;;;15.80
73937;BMP180;59249;59.736;30.568;2023-09-18T12:54:53;101785.00;;;15.80
73937;BMP180;59249;59.736;30.568;2023-09-18T12:57:26;101795.00;;;15.80
73937;BMP180;59249;59.736;30.568;2023-09-18T12:59:56;101798.00;;;15.70
73937;BMP180;59249;59.736;30.568;2023-09-18T13:02:26;101784.00;;;15.80
73937;BMP180;59249;59.736;30.568;2023-09-18T13:05:06;101788.00;;;15.70
73937;BMP180;59249;59.736;30.568;2023-09-18T13:07:43;101785.00;;;15.70
73937;BMP180;59249;59.736;30.568;2023-09-18T13:10:16;101780.00;;;15.60
73937;BMP180;59249;59.736;30.568;2023-09-18T13:13:01;101775.00;;;15.50
73937;BMP180;59249;59.736;30.568;2023-09-18T13:15:57;101773.00;;;15.40
73937;BMP180;59249;59.736;30.568;2023-09-18T13:18:28;101769.00;;;15.50
73937;BMP180;59249;59.736;30.568;2023-09-18T13:20:57;101767.00;;;15.50
73937;BMP180;59249;59.736;30.568;2023-09-18T13:23:30;101773.00;;;15.50
73937;BMP180;59249;59.736;30.568;2023-09-18T13:26:08;101763.00;;;15.50
73937;BMP180;59249;59.736;30.568;2023-09-18T13:28:39;101755.00;;;15.60
73937;BMP180;59249;59.736;30.568;2023-09-18T13:31:11;101753.00;;;15.70
73937;BMP180;59249;59.736;30.568;2023-09-18T13:33:45;101755.00;;;15.60
73937;BMP180;59249;59.736;30.568;2023-09-18T13:36:19;101759.00;;;15.50
73937;BMP180;59249;59.736;30.568;2023-09-18T13:38:48;101747.00;;;15.40
73937;BMP180;59249;59.736;30.568;2023-09-18T13:41:22;101755.00;;;15.40
73937;BMP180;59249;59.736;30.568;2023-09-18T13:43:54;101754.00;;;15.50
73937;BMP180;59249;59.736;30.568;2023-09-18T13:46:28;101750.00;;;15.50
73937;BMP180;59249;59.736;30.568;2023-09-18T13:49:00;101754.00;;;15.50
73937;BMP180;59249;59.736;30.568;2023-09-18T13:51:31;101753.00;;;15.50
73937;BMP180;59249;59.736;30.568;2023-09-18T13:54:15;101755.00;;;15.50
73937;BMP180;59249;59.736;30.568;2023-09-18T13:56:52;101745.00;;;15.50
73937;BMP180;59249;59.736;30.568;2023-09-18T13:59:24;101750.00;;;15.60
73937;BMP180;59249;59.736;30.568;2023-09-18T14:01:58;101746.00;;;15.50
73937;BMP180;59249;59.736;30.568;2023-09-18T14:04:34;101754.00;;;15.50
73937;BMP180;59249;59.736;30.568;2023-09-18T14:07:05;101746.00;;;15.50
73937;BMP180;59249;59.736;30.568;2023-09-18T14:10:01;101736.00;;;15.50
73937;BMP180;59249;59.736;30.568;2023-09-18T14:12:38;101738.00;;;15.50
73937;BMP180;59249;59.736;30.568;2023-09-18T14:15:10;101746.00;;;15.60
73937;BMP180;59249;59.736;30.568;2023-09-18T14:17:39;101744.00;;;15.50
73937;BMP180;59249;59.736;30.568;2023-09-18T14:20:10;101739.00;;;15.50